createdAt,value
2024-05-09T00:00:46.494Z,79.72
2024-05-09T00:03:24.067Z,79.74
2024-05-09T00:05:51.268Z,80.11
2024-05-09T00:08:27.258Z,80.64
2024-05-09T00:11:20.877Z,79.96
2024-05-09T00:13:55.260Z,78.70
2024-05-09T00:16:22.261Z,78.94
2024-05-09T00:18:49.474Z,78.96
2024-05-09T00:21:17.730Z,79.07
2024-05-09T00:23:45.006Z,79.95
2024-05-09T00:26:28.945Z,79.42
2024-05-09T00:28:58.471Z,79.19
2024-05-09T00:31:26.758Z,78.54
2024-05-09T00:33:54.722Z,79.58
2024-05-09T00:36:21.852Z,79.24
2024-05-09T00:38:54.176Z,79.35
2024-05-09T00:41:21.352Z,80.45
2024-05-09T00:43:48.621Z,79.29
2024-05-09T00:46:19.005Z,78.57
2024-05-09T00:48:46.727Z,78.16
2024-05-09T00:51:15.173Z,79.90
2024-05-09T00:53:42.815Z,80.57
2024-05-09T00:56:12.406Z,80.53
2024-05-09T00:58:39.752Z,81.04
2024-05-09T01:01:45.745Z,80.31
2024-05-09T01:04:13.430Z,78.90
2024-05-09T01:06:40.431Z,80.10
2024-05-09T01:09:07.849Z,80.16
2024-05-09T01:11:41.590Z,80.42
2024-05-09T01:14:08.838Z,80.85
2024-05-09T01:16:36.078Z,80.26
2024-05-09T01:19:04.742Z,79.69
2024-05-09T01:21:32.052Z,80.42
2024-05-09T01:24:00.495Z,79.89
2024-05-09T01:26:27.545Z,79.14
2024-05-09T01:28:54.633Z,78.53
2024-05-09T01:31:21.850Z,77.65
2024-05-09T01:34:06.324Z,78.54
2024-05-09T01:36:33.362Z,79.02
2024-05-09T01:39:01.469Z,79.12
2024-05-09T01:41:28.791Z,79.04
2024-05-09T01:43:56.119Z,79.62
2024-05-09T01:46:23.298Z,79.04
2024-05-09T01:48:50.400Z,78.23
2024-05-09T01:51:17.761Z,78.77
2024-05-09T01:53:59.226Z,79.26
2024-05-09T01:56:26.344Z,79.20
2024-05-09T01:58:53.653Z,80.11
2024-05-09T02:01:21.440Z,78.65
2024-05-09T02:03:48.968Z,78.62
2024-05-09T02:06:16.312Z,78.58
2024-05-09T02:08:44.804Z,79.36
2024-05-09T02:11:12.150Z,78.95
2024-05-09T02:13:39.447Z,78.66
2024-05-09T02:16:10.813Z,79.24
2024-05-09T02:18:38.177Z,79.85
2024-05-09T02:21:05.889Z,78.29
2024-05-09T02:23:32.904Z,78.86
2024-05-09T02:26:00.123Z,80.17
2024-05-09T02:28:37.627Z,78.19
2024-05-09T02:31:04.994Z,77.89
2024-05-09T02:33:32.893Z,78.27
2024-05-09T02:36:00.294Z,78.58
2024-05-09T02:38:27.459Z,78.72
2024-05-09T02:40:54.583Z,78.49
2024-05-09T02:43:21.610Z,79.14
2024-05-09T02:45:48.662Z,78.87
2024-05-09T02:48:26.444Z,78.57
2024-05-09T02:50:53.678Z,78.30
2024-05-09T02:53:20.830Z,78.67
2024-05-09T02:55:49.016Z,77.81
2024-05-09T02:58:35.553Z,77.36
2024-05-09T03:01:02.717Z,78.02
2024-05-09T03:03:30.353Z,79.19
2024-05-09T03:05:57.863Z,79.89
2024-05-09T03:08:25.145Z,79.45
2024-05-09T03:10:53.390Z,78.54
2024-05-09T03:13:20.414Z,78.46
2024-05-09T03:15:47.459Z,79.64
2024-05-09T03:18:15.730Z,80.87
2024-05-09T03:20:44.691Z,81.44
2024-05-09T03:23:12.496Z,80.84
2024-05-09T03:25:41.580Z,81.25
2024-05-09T03:28:09.964Z,81.83
2024-05-09T03:30:41.852Z,81.23
2024-05-09T03:33:12.910Z,81.56
2024-05-09T03:35:41.676Z,81.79
2024-05-09T03:38:09.050Z,81.82
2024-05-09T03:40:49.415Z,81.21
2024-05-09T03:43:17.485Z,80.93
2024-05-09T03:45:45.114Z,81.48
2024-05-09T03:48:13.336Z,81.42
2024-05-09T03:50:40.818Z,81.82
2024-05-09T03:53:11.607Z,81.92
2024-05-09T03:55:41.896Z,81.06
2024-05-09T03:58:09.341Z,81.10
2024-05-09T04:00:42.600Z,80.82
2024-05-09T04:03:11.922Z,81.12
2024-05-09T04:05:44.030Z,80.88
2024-05-09T04:08:13.231Z,80.22
2024-05-09T04:10:40.963Z,79.83
2024-05-09T04:13:17.459Z,79.47
2024-05-09T04:15:44.423Z,80.60
2024-05-09T04:18:12.589Z,80.88
2024-05-09T04:20:41.186Z,80.30
2024-05-09T04:23:12.002Z,79.52
2024-05-09T04:25:45.162Z,79.51
2024-05-09T04:28:19.389Z,78.87
2024-05-09T04:30:46.496Z,79.86
2024-05-09T04:33:16.120Z,78.75
2024-05-09T04:35:44.716Z,79.88
2024-05-09T04:38:15.972Z,80.27
2024-05-09T04:40:43.490Z,80.25
2024-05-09T04:43:19.742Z,80.55
2024-05-09T04:45:48.084Z,79.85
2024-05-09T04:48:16.670Z,79.51
2024-05-09T04:50:44.182Z,79.10
2024-05-09T04:53:19.518Z,79.01
2024-05-09T04:55:46.577Z,79.31
2024-05-09T04:58:13.698Z,78.94
2024-05-09T05:00:42.048Z,78.78
2024-05-09T05:03:13.681Z,78.76
2024-05-09T05:05:44.033Z,79.74
2024-05-09T05:08:13.391Z,79.02
2024-05-09T05:10:41.783Z,80.17
2024-05-09T05:13:25.180Z,79.73
2024-05-09T05:15:59.468Z,79.52
2024-05-09T05:18:29.155Z,78.10
2024-05-09T05:21:00.313Z,77.06
2024-05-09T05:23:27.287Z,75.60
2024-05-09T05:25:55.619Z,74.94
2024-05-09T05:28:23.708Z,74.39
2024-05-09T05:30:50.940Z,73.74
2024-05-09T05:33:19.235Z,73.51
2024-05-09T05:35:51.048Z,73.78
2024-05-09T05:38:18.365Z,72.65
2024-05-09T05:40:46.299Z,71.57
2024-05-09T05:43:20.030Z,69.42
2024-05-09T05:45:48.445Z,68.52
2024-05-09T05:48:17.461Z,67.25
2024-05-09T05:50:45.287Z,66.73
2024-05-09T05:53:12.577Z,65.35
2024-05-09T05:55:44.927Z,65.21
2024-05-09T05:58:12.672Z,64.57
2024-05-09T06:01:05.792Z,63.66
2024-05-09T06:03:32.919Z,63.21
2024-05-09T06:06:03.242Z,62.87
2024-05-09T06:08:30.671Z,62.02
2024-05-09T06:11:00.088Z,61.77
2024-05-09T06:13:27.055Z,61.49
2024-05-09T06:15:54.001Z,61.33
2024-05-09T06:18:34.355Z,60.90
2024-05-09T06:21:01.507Z,60.85
2024-05-09T06:23:28.737Z,59.80
2024-05-09T06:25:56.104Z,60.63
2024-05-09T06:28:23.089Z,59.13
2024-05-09T06:30:54.351Z,58.78
2024-05-09T06:33:22.348Z,58.30
2024-05-09T06:35:50.674Z,58.30
2024-05-09T06:38:17.788Z,58.74
2024-05-09T06:40:49.008Z,58.68
2024-05-09T06:43:18.867Z,58.71
2024-05-09T06:45:53.199Z,57.75
2024-05-09T06:48:21.464Z,58.42
2024-05-09T06:50:49.767Z,56.68
2024-05-09T06:53:20.910Z,57.45
2024-05-09T06:55:48.809Z,56.68
2024-05-09T06:58:16.218Z,56.96
2024-05-09T07:00:45.840Z,57.40
2024-05-09T07:03:19.672Z,56.25
2024-05-09T07:05:51.662Z,55.87
2024-05-09T07:08:19.379Z,55.54
2024-05-09T07:10:48.018Z,54.20
2024-05-09T07:13:16.025Z,53.87
2024-05-09T07:15:43.611Z,53.72
2024-05-09T07:18:20.412Z,53.31
2024-05-09T07:20:50.830Z,53.11
2024-05-09T07:23:31.008Z,52.54
2024-05-09T07:25:58.680Z,52.74
2024-05-09T07:28:26.471Z,50.80
2024-05-09T07:30:53.732Z,50.21
2024-05-09T07:33:23.407Z,50.30
2024-05-09T07:35:52.721Z,49.77
2024-05-09T07:38:20.216Z,48.89
2024-05-09T07:40:47.387Z,47.83
2024-05-09T07:43:16.484Z,47.10
2024-05-09T07:45:51.432Z,44.59
2024-05-09T07:50:33.296Z,44.81
2024-05-09T07:53:57.147Z,46.59
2024-05-09T07:56:26.968Z,45.14
2024-05-09T07:58:54.630Z,44.72
2024-05-09T08:01:28.879Z,44.67
2024-05-09T08:04:21.306Z,44.57
2024-05-09T08:06:49.254Z,41.89
2024-05-09T08:09:21.129Z,43.25
2024-05-09T08:11:52.888Z,44.70
2024-05-09T08:14:19.790Z,44.03
2024-05-09T08:16:46.763Z,45.88
2024-05-09T08:19:21.725Z,47.13
2024-05-09T08:21:48.952Z,47.76
2024-05-09T08:24:16.047Z,48.48
2024-05-09T08:26:43.026Z,47.44
2024-05-09T08:29:10.312Z,47.24
2024-05-09T08:31:39.036Z,47.51
2024-05-09T08:34:18.564Z,46.23
2024-05-09T08:36:45.843Z,44.66
2024-05-09T08:39:13.060Z,46.75
2024-05-09T08:41:53.184Z,45.63
2024-05-09T08:44:21.565Z,45.20
2024-05-09T08:46:51.687Z,44.62
2024-05-09T08:49:19.072Z,47.41
2024-05-09T08:51:49.216Z,47.60
2024-05-09T08:54:17.808Z,46.07
2024-05-09T08:56:46.920Z,46.35
2024-05-09T08:59:41.886Z,45.91
2024-05-09T09:02:13.700Z,45.31
2024-05-09T09:04:47.686Z,46.13
2024-05-09T09:07:22.573Z,46.20
2024-05-09T09:09:50.607Z,48.49
2024-05-09T09:12:18.594Z,46.60
2024-05-09T09:14:45.631Z,44.54
2024-05-09T09:17:16.727Z,44.65
2024-05-09T09:19:44.175Z,43.29
2024-05-09T09:22:11.432Z,46.91
2024-05-09T09:24:38.941Z,46.92
2024-05-09T09:27:06.317Z,45.51
2024-05-09T09:29:33.581Z,43.26
2024-05-09T09:32:05.933Z,43.54
2024-05-09T09:34:38.114Z,45.41
2024-05-09T09:37:07.435Z,43.15
2024-05-09T09:39:37.237Z,45.48
2024-05-09T09:42:05.904Z,43.32
2024-05-09T09:44:39.684Z,44.31
2024-05-09T09:47:12.530Z,41.10
2024-05-09T09:49:47.647Z,42.79
2024-05-09T09:52:15.344Z,42.18
2024-05-09T09:54:45.407Z,47.02
2024-05-09T09:57:12.347Z,45.77
2024-05-09T09:59:44.206Z,43.38
2024-05-09T10:02:14.321Z,45.17
2024-05-09T10:04:41.486Z,42.98
2024-05-09T10:07:21.423Z,45.67
2024-05-09T10:09:49.057Z,44.35
2024-05-09T10:12:16.394Z,42.37
2024-05-09T10:14:52.092Z,41.82
2024-05-09T10:17:19.219Z,42.66
2024-05-09T10:19:47.701Z,44.36
2024-05-09T10:22:26.116Z,43.75
2024-05-09T10:25:05.377Z,43.99
2024-05-09T10:27:32.660Z,44.13
2024-05-09T10:30:09.090Z,43.28
2024-05-09T10:32:41.805Z,45.67
2024-05-09T10:35:15.520Z,44.18
2024-05-09T10:38:09.041Z,44.51
2024-05-09T10:40:38.069Z,46.62
2024-05-09T10:43:06.558Z,44.87
2024-05-09T10:45:36.110Z,44.40
2024-05-09T10:48:03.484Z,45.59
2024-05-09T10:50:34.160Z,44.70
2024-05-09T10:53:02.906Z,43.72
2024-05-09T10:55:36.222Z,43.72
2024-05-09T10:58:03.329Z,43.83
2024-05-09T11:00:36.416Z,43.81
2024-05-09T11:03:04.113Z,46.54
2024-05-09T11:05:31.398Z,45.90
2024-05-09T11:07:58.409Z,47.12
2024-05-09T11:10:33.380Z,46.76
2024-05-09T11:13:01.210Z,48.86
2024-05-09T11:15:41.400Z,46.73
2024-05-09T11:18:21.671Z,47.59
2024-05-09T11:20:51.953Z,47.03
2024-05-09T11:23:30.974Z,46.67
2024-05-09T11:25:59.119Z,45.55
2024-05-09T11:28:28.788Z,46.94
2024-05-09T11:31:06.657Z,45.98
2024-05-09T11:33:37.693Z,46.76
2024-05-09T11:36:06.842Z,45.91
2024-05-09T11:38:42.412Z,47.35
2024-05-09T11:41:09.659Z,48.67
2024-05-09T11:43:37.457Z,45.71
2024-05-09T11:46:06.662Z,48.53
2024-05-09T11:48:33.833Z,46.72
2024-05-09T11:51:00.940Z,46.86
2024-05-09T11:53:29.004Z,47.17
2024-05-09T11:55:55.987Z,46.71
2024-05-09T11:58:23.746Z,48.92
2024-05-09T12:01:26.108Z,46.40
2024-05-09T12:03:55.478Z,45.03
2024-05-09T12:06:32.142Z,44.57
2024-05-09T12:08:59.082Z,44.44
2024-05-09T12:11:49.145Z,43.55
2024-05-09T12:14:16.405Z,46.07
2024-05-09T12:16:43.641Z,45.01
2024-05-09T12:19:11.042Z,45.74
2024-05-09T12:21:38.832Z,46.88
2024-05-09T12:24:06.216Z,46.36
2024-05-09T12:26:34.429Z,47.45
2024-05-09T12:29:01.558Z,48.38
2024-05-09T12:31:29.262Z,46.60
2024-05-09T12:34:00.849Z,47.35
2024-05-09T12:36:28.803Z,48.67
2024-05-09T12:38:57.467Z,46.63
2024-05-09T12:41:25.455Z,45.07
2024-05-09T12:43:58.667Z,44.77
2024-05-09T12:46:25.827Z,43.69
2024-05-09T12:48:54.035Z,43.65
2024-05-09T12:51:25.374Z,42.30
2024-05-09T12:53:52.600Z,41.84
2024-05-09T12:56:24.964Z,43.99
2024-05-09T12:58:52.162Z,46.46
2024-05-09T13:01:30.128Z,44.02
2024-05-09T13:03:57.446Z,44.11
2024-05-09T13:06:31.101Z,41.89
2024-05-09T13:08:58.889Z,43.53
2024-05-09T13:11:37.826Z,41.32
2024-05-09T13:14:04.664Z,41.78
2024-05-09T13:16:31.864Z,41.33
2024-05-09T13:18:58.986Z,40.71
2024-05-09T13:21:27.099Z,41.03
2024-05-09T13:23:55.242Z,41.80
2024-05-09T13:26:23.310Z,41.71
2024-05-09T13:28:55.295Z,43.17
2024-05-09T13:31:24.923Z,42.42
2024-05-09T13:33:52.494Z,43.04
2024-05-09T13:36:31.537Z,42.56
2024-05-09T13:39:05.095Z,44.58
2024-05-09T13:41:32.117Z,45.47
2024-05-09T13:44:10.485Z,41.67
2024-05-09T13:46:42.510Z,42.05
2024-05-09T13:49:19.774Z,41.21
2024-05-09T13:51:47.924Z,41.99
2024-05-09T13:54:16.732Z,44.25
2024-05-09T13:56:44.986Z,40.83
2024-05-09T13:59:19.882Z,43.80
2024-05-09T14:01:50.308Z,40.90
2024-05-09T14:04:19.423Z,41.85
2024-05-09T14:06:46.834Z,43.24
2024-05-09T14:09:14.030Z,42.59
2024-05-09T14:11:41.370Z,41.81
2024-05-09T14:14:08.646Z,44.87
2024-05-09T14:16:35.935Z,41.58
2024-05-09T14:19:05.250Z,42.20
2024-05-09T14:21:35.704Z,42.73
2024-05-09T14:24:02.666Z,41.92
2024-05-09T14:26:44.808Z,43.94
2024-05-09T14:29:12.071Z,43.51
2024-05-09T14:31:41.293Z,43.72
2024-05-09T14:34:12.639Z,43.18
2024-05-09T14:36:39.886Z,41.57
2024-05-09T14:39:07.017Z,42.94
2024-05-09T14:41:43.586Z,42.10
2024-05-09T14:44:12.896Z,44.61
2024-05-09T14:46:43.283Z,43.71
2024-05-09T14:49:12.843Z,43.76
2024-05-09T14:51:47.534Z,44.88
2024-05-09T14:54:29.984Z,42.22
2024-05-09T14:57:01.217Z,43.51
2024-05-09T14:59:44.395Z,43.13
2024-05-09T15:02:41.678Z,41.59
2024-05-09T15:05:36.836Z,43.52
2024-05-09T15:08:06.362Z,41.68
2024-05-09T15:10:35.848Z,43.18
2024-05-09T15:13:04.512Z,43.86
2024-05-09T15:15:37.703Z,42.89
2024-05-09T15:18:06.664Z,42.24
2024-05-09T15:20:37.452Z,42.12
2024-05-09T15:23:06.869Z,41.45
2024-05-09T15:25:35.196Z,43.56
2024-05-09T15:28:14.062Z,43.09
2024-05-09T15:30:45.413Z,41.09
2024-05-09T15:33:20.796Z,41.24
2024-05-09T15:35:48.270Z,41.25
2024-05-09T15:38:16.364Z,42.14
2024-05-09T15:40:45.627Z,41.44
2024-05-09T15:43:32.132Z,40.76
2024-05-09T15:45:59.175Z,42.16
2024-05-09T15:48:26.463Z,41.76
2024-05-09T15:50:57.146Z,43.29
2024-05-09T15:53:29.680Z,44.83
2024-05-09T15:55:59.816Z,42.56
2024-05-09T15:58:35.129Z,43.20
2024-05-09T16:01:06.596Z,43.78
2024-05-09T16:03:34.166Z,42.66
2024-05-09T16:06:01.367Z,42.30
2024-05-09T16:08:28.533Z,41.89
2024-05-09T16:10:55.750Z,42.97
2024-05-09T16:13:24.846Z,42.05
2024-05-09T16:15:52.311Z,42.15
2024-05-09T16:18:20.154Z,42.87
2024-05-09T16:20:50.106Z,43.45
2024-05-09T16:23:17.755Z,43.25
2024-05-09T16:26:10.356Z,43.88
2024-05-09T16:28:37.438Z,43.64
2024-05-09T16:31:04.809Z,42.68
2024-05-09T16:33:32.132Z,43.78
2024-05-09T16:35:59.659Z,43.88
2024-05-09T16:38:26.633Z,42.75
2024-05-09T16:41:00.056Z,43.92
2024-05-09T16:43:27.169Z,42.36
2024-05-09T16:45:54.327Z,43.05
2024-05-09T16:48:21.444Z,44.39
2024-05-09T16:50:49.277Z,44.27
2024-05-09T16:53:26.622Z,42.78
2024-05-09T16:55:53.805Z,42.69
2024-05-09T16:58:21.038Z,43.79
2024-05-09T17:04:06.875Z,43.62
2024-05-09T17:06:33.937Z,43.06
2024-05-09T17:09:08.389Z,43.80
2024-05-09T17:11:38.686Z,42.94
2024-05-09T17:14:05.734Z,43.59
2024-05-09T17:16:33.149Z,43.00
2024-05-09T17:19:00.584Z,43.50
2024-05-09T17:21:27.759Z,43.64
2024-05-09T17:23:55.821Z,43.54
2024-05-09T17:26:23.963Z,44.34
2024-05-09T17:28:57.313Z,44.42
2024-05-09T17:31:24.376Z,45.65
2024-05-09T17:33:53.074Z,45.48
2024-05-09T17:36:20.481Z,44.91
2024-05-09T17:38:52.860Z,43.39
2024-05-09T17:41:20.075Z,44.05
2024-05-09T17:43:47.284Z,44.15
2024-05-09T17:46:14.339Z,44.34
2024-05-09T17:48:44.808Z,44.57
2024-05-09T17:51:13.834Z,44.29
2024-05-09T17:53:41.102Z,43.15
2024-05-09T17:56:12.583Z,43.98
2024-05-09T17:58:39.900Z,43.80
2024-05-09T18:01:08.089Z,44.07
2024-05-09T18:03:43.875Z,44.45
2024-05-09T18:06:41.398Z,44.27
2024-05-09T18:09:08.827Z,45.33
2024-05-09T18:11:41.954Z,44.92
2024-05-09T18:14:09.380Z,45.83
2024-05-09T18:16:48.966Z,46.34
2024-05-09T18:19:16.316Z,46.91
2024-05-09T18:21:44.922Z,46.85
2024-05-09T18:24:12.153Z,47.28
2024-05-09T18:26:39.451Z,47.67
2024-05-09T18:29:06.731Z,47.86
2024-05-09T18:31:33.807Z,48.24
2024-05-09T18:34:00.960Z,48.22
2024-05-09T18:36:28.570Z,48.43
2024-05-09T18:38:55.609Z,49.68
2024-05-09T18:41:22.730Z,50.00
2024-05-09T18:43:51.040Z,50.64
2024-05-09T18:46:18.577Z,51.64
2024-05-09T18:48:45.655Z,51.29
2024-05-09T18:51:12.675Z,51.48
2024-05-09T18:53:40.822Z,51.71
2024-05-09T18:56:12.897Z,51.34
2024-05-09T18:58:39.841Z,51.72
2024-05-09T19:01:32.484Z,51.64
2024-05-09T19:04:02.492Z,51.43
2024-05-09T19:06:29.825Z,52.07
2024-05-09T19:08:59.833Z,52.81
2024-05-09T19:11:26.783Z,52.65
2024-05-09T19:13:56.037Z,52.56
2024-05-09T19:16:23.891Z,53.14
2024-05-09T19:18:51.823Z,52.85
2024-05-09T19:21:21.900Z,53.23
2024-05-09T19:23:52.294Z,53.59
2024-05-09T19:26:19.784Z,53.97
2024-05-09T19:28:46.845Z,54.43
2024-05-09T19:31:15.027Z,54.82
2024-05-09T19:33:42.311Z,55.06
2024-05-09T19:36:09.711Z,55.57
2024-05-09T19:38:41.798Z,55.61
2024-05-09T19:41:08.716Z,56.50
2024-05-09T19:43:51.940Z,56.91
2024-05-09T19:46:19.241Z,57.48
2024-05-09T19:48:46.567Z,58.49
2024-05-09T19:51:13.528Z,58.75
2024-05-09T19:53:40.605Z,58.10
2024-05-09T19:56:07.517Z,58.82
2024-05-09T19:58:34.632Z,59.11
2024-05-09T20:01:03.769Z,59.26
2024-05-09T20:03:37.463Z,59.71
2024-05-09T20:06:08.902Z,59.31
2024-05-09T20:08:36.298Z,59.76
2024-05-09T20:11:06.390Z,59.06
2024-05-09T20:13:33.405Z,59.22
2024-05-09T20:16:01.701Z,59.51
2024-05-09T20:18:28.924Z,59.52
2024-05-09T20:21:00.658Z,60.17
2024-05-09T20:23:27.708Z,61.17
2024-05-09T20:25:54.590Z,61.79
2024-05-09T20:28:52.902Z,61.79
2024-05-09T20:31:21.733Z,61.91
2024-05-09T20:33:49.746Z,61.74
2024-05-09T20:36:16.569Z,62.15
2024-05-09T20:38:43.521Z,63.31
2024-05-09T20:41:11.383Z,63.35
2024-05-09T20:43:38.416Z,63.60
2024-05-09T20:46:16.128Z,63.50
2024-05-09T20:48:43.075Z,63.57
2024-05-09T20:51:10.448Z,63.45
2024-05-09T20:53:37.366Z,63.38
2024-05-09T20:56:04.575Z,63.43
2024-05-09T20:58:31.433Z,63.78
2024-05-09T21:01:23.900Z,63.74
2024-05-09T21:03:51.291Z,64.67
2024-05-09T21:06:18.142Z,65.23
2024-05-09T21:08:47.224Z,64.81
2024-05-09T21:11:14.034Z,64.77
2024-05-09T21:13:42.947Z,65.10
2024-05-09T21:16:09.948Z,65.21
2024-05-09T21:18:46.263Z,65.26
2024-05-09T21:21:14.209Z,65.55
2024-05-09T21:23:41.071Z,66.10
2024-05-09T21:26:10.048Z,66.41
2024-05-09T21:28:37.082Z,65.97
2024-05-09T21:31:30.218Z,66.27
2024-05-09T21:33:57.408Z,66.64
2024-05-09T21:36:24.442Z,66.86
2024-05-09T21:38:51.199Z,67.74
2024-05-09T21:41:21.412Z,68.38
2024-05-09T21:43:48.490Z,68.40
2024-05-09T21:46:15.437Z,68.53
2024-05-09T21:48:43.564Z,68.67
2024-05-09T21:51:19.638Z,69.00
2024-05-09T21:53:46.408Z,68.44
2024-05-09T21:56:23.024Z,68.68
2024-05-09T21:58:49.798Z,68.71
2024-05-09T22:01:55.191Z,68.21
2024-05-09T22:04:22.052Z,68.32
2024-05-09T22:06:49.078Z,69.21
2024-05-09T22:09:15.967Z,69.25
2024-05-09T22:11:43.072Z,68.87
2024-05-09T22:14:09.909Z,69.61
2024-05-09T22:16:40.491Z,69.60
2024-05-09T22:19:07.871Z,69.68
2024-05-09T22:21:35.976Z,69.37
2024-05-09T22:24:02.895Z,69.83
2024-05-09T22:26:33.034Z,69.41
2024-05-09T22:29:00.109Z,69.68
2024-05-09T22:31:28.087Z,70.05
2024-05-09T22:33:55.196Z,70.04
2024-05-09T22:36:22.727Z,70.71
2024-05-09T22:38:54.580Z,70.51
2024-05-09T22:41:21.529Z,70.29
2024-05-09T22:43:48.551Z,70.89
2024-05-09T22:46:15.374Z,71.55
2024-05-09T22:48:42.783Z,72.72
2024-05-09T22:51:12.992Z,71.85
2024-05-09T22:53:39.939Z,72.59
2024-05-09T22:56:14.755Z,72.02
2024-05-09T22:58:41.829Z,71.94
2024-05-09T23:01:15.413Z,72.08
2024-05-09T23:03:42.450Z,71.84
2024-05-09T23:06:10.828Z,72.86
2024-05-09T23:08:37.863Z,74.54
2024-05-09T23:11:16.338Z,74.48
2024-05-09T23:13:53.588Z,74.31
2024-05-09T23:16:20.674Z,73.17
2024-05-09T23:19:22.968Z,72.49
2024-05-09T23:21:49.776Z,73.16
2024-05-09T23:24:16.698Z,74.35
2024-05-09T23:26:46.039Z,74.85
2024-05-09T23:29:13.044Z,74.09
2024-05-09T23:31:42.155Z,75.04
2024-05-09T23:34:09.298Z,74.94
2024-05-09T23:36:36.539Z,74.95
2024-05-09T23:39:05.503Z,73.90
2024-05-09T23:41:32.594Z,74.30
2024-05-09T23:44:08.041Z,74.36
2024-05-09T23:46:35.516Z,75.00
2024-05-09T23:49:02.688Z,74.43
2024-05-09T23:51:29.688Z,75.24
2024-05-09T23:54:05.681Z,73.89
2024-05-09T23:56:32.504Z,73.05
2024-05-09T23:59:01.396Z,72.65
